createdAt,value
2022-09-06T00:00:30.913Z,101896.69
2022-09-06T00:03:03.844Z,101897.56
2022-09-06T00:05:36.772Z,101900.19
2022-09-06T00:08:08.804Z,101894.16
2022-09-06T00:10:42.958Z,101895.00
2022-09-06T00:13:14.922Z,101897.72
2022-09-06T00:15:47.093Z,101905.97
2022-09-06T00:18:19.053Z,101896.34
2022-09-06T00:20:51.063Z,101893.75
2022-09-06T00:23:23.011Z,101889.44
2022-09-06T00:26:03.980Z,101889.66
2022-09-06T00:28:35.945Z,101880.00
2022-09-06T00:31:14.177Z,101896.91
2022-09-06T00:33:46.245Z,101890.78
2022-09-06T00:36:19.647Z,101893.81
2022-09-06T00:38:51.608Z,101887.66
2022-09-06T00:41:23.746Z,101886.84
2022-09-06T00:43:55.745Z,101882.44
2022-09-06T00:46:30.854Z,101890.75
2022-09-06T00:49:10.747Z,101881.22
2022-09-06T00:51:43.347Z,101877.84
2022-09-06T00:54:15.671Z,101883.31
2022-09-06T00:56:48.173Z,101876.53
2022-09-06T00:59:20.174Z,101884.78
2022-09-06T01:01:52.512Z,101879.63
2022-09-06T01:04:25.435Z,101869.19
2022-09-06T01:07:11.624Z,101867.53
2022-09-06T01:10:05.986Z,101864.13
2022-09-06T01:13:01.092Z,101871.31
2022-09-06T01:16:00.018Z,101867.03
2022-09-06T01:18:32.044Z,101864.44
2022-09-06T01:21:32.327Z,101861.72
2022-09-06T01:24:58.707Z,101861.09
2022-09-06T01:28:07.264Z,101859.44
2022-09-06T01:30:49.247Z,101858.63
2022-09-06T01:33:34.723Z,101856.94
2022-09-06T01:36:12.360Z,101850.75
2022-09-06T01:38:44.572Z,101855.22
2022-09-06T01:41:16.565Z,101857.94
2022-09-06T01:43:52.736Z,101861.66
2022-09-06T01:46:45.026Z,101859.88
2022-09-06T01:49:56.209Z,101866.09
2022-09-06T01:53:26.946Z,101863.28
2022-09-06T01:56:27.175Z,101857.09
2022-09-06T01:59:43.881Z,101856.16
2022-09-06T02:02:54.839Z,101851.84
2022-09-06T02:05:55.744Z,101851.88
2022-09-06T02:08:34.329Z,101844.09
2022-09-06T02:11:09.033Z,101845.84
2022-09-06T02:13:54.363Z,101837.78
2022-09-06T02:16:30.194Z,101839.66
2022-09-06T02:19:14.205Z,101839.53
2022-09-06T02:21:47.765Z,101841.34
2022-09-06T02:24:26.375Z,101837.75
2022-09-06T02:26:58.466Z,101847.53
2022-09-06T02:29:30.799Z,101836.00
2022-09-06T02:32:16.948Z,101835.97
2022-09-06T02:34:51.643Z,101831.47
2022-09-06T02:37:26.295Z,101831.47
2022-09-06T02:39:58.344Z,101833.13
2022-09-06T02:42:30.487Z,101828.56
2022-09-06T02:45:02.462Z,101833.91
2022-09-06T02:47:34.425Z,101837.53
2022-09-06T02:50:08.309Z,101833.88
2022-09-06T02:52:40.311Z,101828.66
2022-09-06T02:55:12.510Z,101828.56
2022-09-06T02:57:44.477Z,101829.59
2022-09-06T03:00:16.505Z,101831.34
2022-09-06T03:02:48.789Z,101819.00
2022-09-06T03:05:20.791Z,101819.00
2022-09-06T03:07:54.469Z,101823.47
2022-09-06T03:10:26.893Z,101826.13
2022-09-06T03:12:59.150Z,101815.59
2022-09-06T03:15:31.105Z,101818.31
2022-09-06T03:18:03.092Z,101813.88
2022-09-06T03:20:37.152Z,101818.38
2022-09-06T03:23:09.753Z,101807.63
2022-09-06T03:25:44.631Z,101806.91
2022-09-06T03:28:18.010Z,101801.66
2022-09-06T03:30:51.836Z,101793.63
2022-09-06T03:33:24.348Z,101786.78
2022-09-06T03:36:00.143Z,101787.66
2022-09-06T03:38:32.134Z,101782.53
2022-09-06T03:41:04.182Z,101778.34
2022-09-06T03:43:36.225Z,101780.97
2022-09-06T03:46:08.420Z,101781.06
2022-09-06T03:48:40.563Z,101780.19
2022-09-06T03:51:12.515Z,101787.47
2022-09-06T03:53:44.501Z,101781.25
2022-09-06T03:56:16.621Z,101779.25
2022-09-06T03:58:48.717Z,101781.13
2022-09-06T04:01:21.031Z,101789.13
2022-09-06T04:03:53.099Z,101789.91
2022-09-06T04:06:25.109Z,101795.31
2022-09-06T04:08:57.075Z,101795.31
2022-09-06T04:11:29.033Z,101789.97
2022-09-06T04:14:01.002Z,101787.44
2022-09-06T04:16:33.048Z,101792.78
2022-09-06T04:19:05.050Z,101802.47
2022-09-06T04:21:36.993Z,101794.53
2022-09-06T04:24:09.021Z,101782.25
2022-09-06T04:26:41.026Z,101787.44
2022-09-06T04:29:13.141Z,101785.66
2022-09-06T04:31:45.216Z,101781.25
2022-09-06T04:34:17.428Z,101781.34
2022-09-06T04:36:49.385Z,101787.53
2022-09-06T04:39:21.477Z,101790.03
2022-09-06T04:41:53.450Z,101792.69
2022-09-06T04:44:25.520Z,101784.00
2022-09-06T04:47:12.831Z,101789.22
2022-09-06T04:49:46.127Z,101785.84
2022-09-06T04:52:18.121Z,101787.69
2022-09-06T04:54:50.095Z,101773.69
2022-09-06T04:57:22.047Z,101782.66
2022-09-06T04:59:54.159Z,101780.06
2022-09-06T05:02:26.289Z,101784.44
2022-09-06T05:04:58.327Z,101778.16
2022-09-06T05:07:30.473Z,101780.91
2022-09-06T05:10:02.506Z,101793.28
2022-09-06T05:12:34.957Z,101788.28
2022-09-06T05:15:07.762Z,101788.13
2022-09-06T05:17:39.729Z,101781.13
2022-09-06T05:20:12.226Z,101786.41
2022-09-06T05:22:52.142Z,101785.56
2022-09-06T05:25:24.116Z,101777.56
2022-09-06T05:27:56.103Z,101780.31
2022-09-06T05:30:28.065Z,101783.16
2022-09-06T05:33:00.178Z,101779.63
2022-09-06T05:35:32.135Z,101775.13
2022-09-06T05:38:04.361Z,101782.16
2022-09-06T05:40:36.514Z,101790.88
2022-09-06T05:43:08.511Z,101796.13
2022-09-06T05:45:40.632Z,101799.69
2022-09-06T05:48:12.632Z,101803.72
2022-09-06T05:50:44.603Z,101825.09
2022-09-06T05:53:16.568Z,101847.22
2022-09-06T05:55:48.568Z,101856.84
2022-09-06T05:58:20.524Z,101863.06
2022-09-06T06:00:52.583Z,101847.91
2022-09-06T06:03:24.619Z,101837.09
2022-09-06T06:05:56.730Z,101833.66
2022-09-06T06:08:28.880Z,101826.84
2022-09-06T06:11:02.387Z,101811.03
2022-09-06T06:13:39.638Z,101809.19
2022-09-06T06:16:15.193Z,101809.13
2022-09-06T06:18:51.774Z,101802.25
2022-09-06T06:21:30.623Z,101796.72
2022-09-06T06:24:05.063Z,101788.88
2022-09-06T06:26:37.520Z,101779.13
2022-09-06T06:29:09.867Z,101785.44
2022-09-06T06:31:42.051Z,101776.59
2022-09-06T06:34:14.165Z,101769.50
2022-09-06T06:36:46.136Z,101766.03
2022-09-06T06:39:18.152Z,101762.47
2022-09-06T06:41:50.906Z,101767.72
2022-09-06T06:44:22.920Z,101774.78
2022-09-06T06:46:58.005Z,101768.66
2022-09-06T06:49:30.491Z,101787.91
2022-09-06T06:52:02.614Z,101808.34
2022-09-06T06:54:37.738Z,101811.09
2022-09-06T06:57:09.708Z,101820.13
2022-09-06T06:59:41.790Z,101814.63
2022-09-06T07:02:15.784Z,101816.03
2022-09-06T07:04:47.915Z,101823.81
2022-09-06T07:07:36.763Z,101822.75
2022-09-06T07:13:04.236Z,101843.75
2022-09-06T07:15:36.158Z,101848.16
2022-09-06T07:18:08.249Z,101842.59
2022-09-06T07:26:27.969Z,101837.47
2022-09-06T07:29:02.819Z,101841.09
2022-09-06T07:34:29.554Z,101840.00
2022-09-06T07:37:01.603Z,101841.59
2022-09-06T07:39:33.603Z,101843.28
2022-09-06T07:42:06.708Z,101849.78
2022-09-06T07:44:38.705Z,101852.50
2022-09-06T07:53:15.028Z,101848.00
2022-09-06T07:55:47.725Z,101846.22
2022-09-06T07:58:19.787Z,101843.56
2022-09-06T08:00:51.844Z,101836.31
2022-09-06T08:03:23.985Z,101835.22
2022-09-06T08:06:11.480Z,101835.72
2022-09-06T08:08:59.341Z,101842.44
2022-09-06T08:11:35.629Z,101857.78
2022-09-06T08:14:09.917Z,101856.00
2022-09-06T08:16:41.971Z,101855.91
2022-09-06T08:19:14.017Z,101848.81
2022-09-06T08:21:46.093Z,101847.91
2022-09-06T08:24:18.052Z,101845.16
2022-09-06T08:26:50.359Z,101848.69
2022-09-06T08:29:22.383Z,101848.59
2022-09-06T08:31:54.585Z,101855.63
2022-09-06T08:34:26.643Z,101858.19
2022-09-06T08:36:58.593Z,101858.66
2022-09-06T08:39:30.578Z,101854.84
2022-09-06T08:42:07.341Z,101848.53
2022-09-06T08:44:56.289Z,101844.84
2022-09-06T08:47:29.367Z,101837.69
2022-09-06T08:50:11.606Z,101837.59
2022-09-06T08:52:49.761Z,101834.75
2022-09-06T08:55:49.754Z,101830.25
2022-09-06T08:58:55.648Z,101825.53
2022-09-06T09:01:43.938Z,101818.16
2022-09-06T09:04:22.316Z,101820.66
2022-09-06T09:07:00.835Z,101823.88
2022-09-06T09:09:34.531Z,101814.25
2022-09-06T09:12:07.686Z,101805.59
2022-09-06T09:14:43.417Z,101805.31
2022-09-06T09:17:29.847Z,101804.78
2022-09-06T09:20:02.013Z,101801.56
2022-09-06T09:22:34.179Z,101809.56
2022-09-06T09:25:08.860Z,101813.44
2022-09-06T09:27:41.566Z,101814.53
2022-09-06T09:33:33.687Z,101817.47
2022-09-06T09:36:13.493Z,101813.34
2022-09-06T09:38:51.854Z,101819.47
2022-09-06T09:41:36.604Z,101813.22
2022-09-06T09:44:18.070Z,101800.91
2022-09-06T09:46:50.047Z,101806.50
2022-09-06T09:49:21.970Z,101791.75
2022-09-06T09:52:14.663Z,101790.78
2022-09-06T09:54:47.832Z,101793.66
2022-09-06T09:57:20.354Z,101788.50
2022-09-06T10:00:04.025Z,101785.03
2022-09-06T10:02:41.708Z,101799.16
2022-09-06T10:05:13.736Z,101799.13
2022-09-06T10:07:55.250Z,101796.38
2022-09-06T10:10:32.179Z,101787.22
2022-09-06T10:13:26.642Z,101780.34
2022-09-06T10:16:00.723Z,101775.38
2022-09-06T10:18:34.210Z,101779.28
2022-09-06T10:21:19.853Z,101778.31
2022-09-06T10:27:02.393Z,101782.50
2022-09-06T10:30:06.715Z,101794.53
2022-09-06T10:33:10.550Z,101794.19
2022-09-06T10:35:42.569Z,101797.84
2022-09-06T10:38:54.833Z,101799.91
2022-09-06T10:42:01.829Z,101798.00
2022-09-06T10:45:29.552Z,101799.66
2022-09-06T10:48:52.524Z,101801.53
2022-09-06T10:51:50.158Z,101804.34
2022-09-06T10:54:23.956Z,101802.56
2022-09-06T11:00:20.024Z,101818.69
2022-09-06T11:06:14.104Z,101809.66
2022-09-06T11:09:19.343Z,101802.59
2022-09-06T11:12:19.220Z,101800.84
2022-09-06T11:14:52.016Z,101791.69
2022-09-06T11:17:41.167Z,101794.84
2022-09-06T11:20:32.000Z,101795.13
2022-09-06T11:23:40.779Z,101794.25
2022-09-06T11:26:30.425Z,101797.72
2022-09-06T11:29:08.894Z,101804.63
2022-09-06T11:32:33.479Z,101799.19
2022-09-06T11:35:11.224Z,101798.53
2022-09-06T11:37:44.801Z,101793.84
2022-09-06T11:40:28.431Z,101795.06
2022-09-06T11:43:01.103Z,101800.41
2022-09-06T11:45:50.011Z,101789.25
2022-09-06T11:48:25.446Z,101792.34
2022-09-06T11:51:06.904Z,101794.69
2022-09-06T11:53:51.193Z,101798.38
2022-09-06T11:56:42.047Z,101791.22
2022-09-06T11:59:16.875Z,101794.78
2022-09-06T12:02:30.413Z,101795.97
2022-09-06T12:05:03.986Z,101797.09
2022-09-06T12:07:39.034Z,101796.38
2022-09-06T12:10:29.761Z,101793.25
2022-09-06T12:13:01.792Z,101794.97
2022-09-06T12:15:52.876Z,101785.06
2022-09-06T12:18:50.894Z,101787.78
2022-09-06T12:21:52.463Z,101790.06
2022-09-06T12:24:38.596Z,101791.38
2022-09-06T12:27:16.698Z,101787.97
2022-09-06T12:30:02.278Z,101769.69
2022-09-06T12:32:40.630Z,101772.28
2022-09-06T12:38:17.283Z,101766.72
2022-09-06T12:40:58.631Z,101759.09
2022-09-06T12:43:36.171Z,101760.53
2022-09-06T12:46:08.477Z,101759.16
2022-09-06T12:48:44.432Z,101755.13
2022-09-06T12:51:21.270Z,101748.63
2022-09-06T12:54:04.293Z,101746.41
2022-09-06T12:56:36.352Z,101744.06
2022-09-06T12:59:23.567Z,101746.59
2022-09-06T13:02:03.293Z,101748.28
2022-09-06T13:04:45.011Z,101744.69
2022-09-06T13:07:20.896Z,101738.19
2022-09-06T13:09:56.278Z,101739.91
2022-09-06T13:12:36.725Z,101743.22
2022-09-06T13:15:20.214Z,101730.53
2022-09-06T13:17:54.821Z,101725.19
2022-09-06T13:20:30.873Z,101716.75
2022-09-06T13:23:20.683Z,101722.91
2022-09-06T13:25:54.530Z,101715.44
2022-09-06T13:28:30.762Z,101712.25
2022-09-06T13:31:18.081Z,101719.63
2022-09-06T13:33:58.530Z,101704.75
2022-09-06T13:36:32.362Z,101706.78
2022-09-06T13:39:04.638Z,101709.94
2022-09-06T13:41:41.288Z,101709.31
2022-09-06T13:44:16.133Z,101708.38
2022-09-06T13:46:53.619Z,101709.41
2022-09-06T13:49:26.400Z,101709.25
2022-09-06T13:52:02.158Z,101701.34
2022-09-06T13:54:34.711Z,101702.13
2022-09-06T13:57:06.659Z,101705.03
2022-09-06T13:59:38.619Z,101696.88
2022-09-06T14:02:16.082Z,101694.91
2022-09-06T14:04:48.123Z,101698.44
2022-09-06T14:07:20.148Z,101697.59
2022-09-06T14:09:52.182Z,101691.28
2022-09-06T14:12:24.149Z,101689.09
2022-09-06T14:14:56.134Z,101696.56
2022-09-06T14:17:28.216Z,101698.47
2022-09-06T14:20:00.449Z,101690.84
2022-09-06T14:22:32.533Z,101677.03
2022-09-06T14:25:07.061Z,101688.97
2022-09-06T14:27:39.242Z,101692.28
2022-09-06T14:30:12.332Z,101679.63
2022-09-06T14:32:44.306Z,101675.75
2022-09-06T14:35:16.396Z,101683.50
2022-09-06T14:37:48.406Z,101678.09
2022-09-06T14:40:20.452Z,101677.91
2022-09-06T14:42:52.983Z,101666.41
2022-09-06T14:45:25.814Z,101664.59
2022-09-06T14:47:57.785Z,101660.75
2022-09-06T14:50:31.406Z,101661.63
2022-09-06T14:53:08.762Z,101650.00
2022-09-06T14:55:47.174Z,101652.13
2022-09-06T14:58:19.178Z,101650.25
2022-09-06T15:00:51.158Z,101649.66
2022-09-06T15:03:23.172Z,101651.31
2022-09-06T15:05:55.184Z,101637.00
2022-09-06T15:08:27.159Z,101630.75
2022-09-06T15:10:59.383Z,101632.56
2022-09-06T15:13:31.379Z,101632.63
2022-09-06T15:16:05.165Z,101642.28
2022-09-06T15:18:37.219Z,101646.22
2022-09-06T15:21:17.079Z,101637.81
2022-09-06T15:23:49.610Z,101642.66
2022-09-06T15:26:22.039Z,101650.03
2022-09-06T15:28:54.068Z,101637.84
2022-09-06T15:31:26.407Z,101637.03
2022-09-06T15:33:59.259Z,101632.06
2022-09-06T15:36:32.004Z,101622.31
2022-09-06T15:39:05.973Z,101624.06
2022-09-06T15:41:40.480Z,101620.28
2022-09-06T15:44:16.170Z,101619.94
2022-09-06T15:46:54.023Z,101623.50
2022-09-06T15:49:31.284Z,101611.09
2022-09-06T15:52:06.024Z,101618.16
2022-09-06T15:54:56.387Z,101615.69
2022-09-06T15:57:29.198Z,101614.31
2022-09-06T16:00:01.372Z,101604.19
2022-09-06T16:02:33.495Z,101602.19
2022-09-06T16:05:06.744Z,101592.81
2022-09-06T16:07:43.108Z,101589.69
2022-09-06T16:10:15.409Z,101584.63
2022-09-06T16:12:50.583Z,101590.03
2022-09-06T16:15:22.739Z,101599.16
2022-09-06T16:17:55.875Z,101601.50
2022-09-06T16:20:28.686Z,101595.44
2022-09-06T16:23:03.702Z,101592.84
2022-09-06T16:25:35.709Z,101593.88
2022-09-06T16:28:07.802Z,101595.84
2022-09-06T16:30:44.203Z,101594.97
2022-09-06T16:33:16.306Z,101585.31
2022-09-06T16:35:48.488Z,101579.06
2022-09-06T16:38:20.682Z,101567.81
2022-09-06T16:40:52.817Z,101573.88
2022-09-06T16:43:26.266Z,101569.81
2022-09-06T16:46:01.371Z,101563.53
2022-09-06T16:48:34.263Z,101571.47
2022-09-06T16:51:18.547Z,101580.19
2022-09-06T16:53:52.159Z,101572.78
2022-09-06T16:56:27.808Z,101581.72
2022-09-06T16:59:02.951Z,101585.38
2022-09-06T17:01:36.518Z,101579.13
2022-09-06T17:04:09.748Z,101572.84
2022-09-06T17:06:44.847Z,101568.53
2022-09-06T17:09:20.091Z,101581.97
2022-09-06T17:11:52.086Z,101571.25
2022-09-06T17:14:24.119Z,101569.66
2022-09-06T17:17:04.965Z,101564.25
2022-09-06T17:19:41.407Z,101564.47
2022-09-06T17:22:13.849Z,101564.47
2022-09-06T17:24:45.886Z,101566.38
2022-09-06T17:27:17.995Z,101559.66
2022-09-06T17:29:50.086Z,101567.69
2022-09-06T17:32:22.147Z,101567.03
2022-09-06T17:34:54.145Z,101573.41
2022-09-06T17:37:26.128Z,101568.34
2022-09-06T17:39:58.350Z,101578.13
2022-09-06T17:42:31.686Z,101583.59
2022-09-06T17:45:03.943Z,101586.41
2022-09-06T17:47:35.977Z,101583.06
2022-09-06T17:50:08.573Z,101593.88
2022-09-06T17:52:40.661Z,101583.38
2022-09-06T17:55:12.844Z,101594.31
2022-09-06T17:57:44.904Z,101601.53
2022-09-06T18:00:17.677Z,101596.50
2022-09-06T18:02:49.695Z,101605.41
2022-09-06T18:05:21.840Z,101602.88
2022-09-06T18:07:53.854Z,101604.91
2022-09-06T18:10:26.010Z,101605.91
2022-09-06T18:13:01.182Z,101607.00
2022-09-06T18:15:39.307Z,101609.03
2022-09-06T18:18:11.738Z,101603.84
2022-09-06T18:20:43.812Z,101605.75
2022-09-06T18:23:15.800Z,101610.25
2022-09-06T18:26:08.209Z,101605.22
2022-09-06T18:28:40.810Z,101594.78
2022-09-06T18:31:18.688Z,101599.34
2022-09-06T18:33:51.756Z,101601.41
2022-09-06T18:36:25.114Z,101604.13
2022-09-06T18:39:06.252Z,101600.69
2022-09-06T18:41:56.649Z,101599.19
2022-09-06T18:44:32.394Z,101596.53
2022-09-06T18:47:08.594Z,101596.81
2022-09-06T18:49:43.982Z,101604.88
2022-09-06T18:52:16.548Z,101600.66
2022-09-06T18:54:49.589Z,101607.00
2022-09-06T18:57:21.607Z,101606.25
2022-09-06T18:59:53.628Z,101611.66
2022-09-06T19:02:27.753Z,101613.66
2022-09-06T19:04:59.812Z,101619.88
2022-09-06T19:07:32.269Z,101613.03
2022-09-06T19:10:05.253Z,101616.63
2022-09-06T19:12:37.287Z,101612.28
2022-09-06T19:15:10.872Z,101618.75
2022-09-06T19:17:43.215Z,101612.66
2022-09-06T19:20:15.206Z,101608.25
2022-09-06T19:22:50.873Z,101607.41
2022-09-06T19:25:23.103Z,101611.06
2022-09-06T19:27:55.213Z,101610.41
2022-09-06T19:30:27.353Z,101605.28
2022-09-06T19:32:59.374Z,101599.13
2022-09-06T19:35:31.340Z,101599.22
2022-09-06T19:38:03.415Z,101595.69
2022-09-06T19:40:35.384Z,101600.34
2022-09-06T19:43:07.508Z,101594.06
2022-09-06T19:45:40.559Z,101604.81
2022-09-06T19:48:12.619Z,101595.19
2022-09-06T19:50:44.594Z,101600.59
2022-09-06T19:53:16.603Z,101591.84
2022-09-06T19:55:48.555Z,101585.63
2022-09-06T19:58:20.563Z,101590.91
2022-09-06T20:00:53.822Z,101589.44
2022-09-06T20:03:25.900Z,101585.09
2022-09-06T20:05:59.550Z,101576.19
2022-09-06T20:08:31.786Z,101582.41
2022-09-06T20:11:06.330Z,101583.38
2022-09-06T20:13:39.470Z,101579.06
2022-09-06T20:16:13.046Z,101570.31
2022-09-06T20:18:45.222Z,101569.44
2022-09-06T20:21:21.145Z,101577.53
2022-09-06T20:23:56.479Z,101572.47
2022-09-06T20:26:30.576Z,101570.63
2022-09-06T20:29:05.077Z,101577.72
2022-09-06T20:31:38.577Z,101578.72
2022-09-06T20:34:12.910Z,101568.16
2022-09-06T20:36:44.864Z,101557.56
2022-09-06T20:39:17.063Z,101554.09
2022-09-06T20:41:49.123Z,101550.53
2022-09-06T20:44:21.222Z,101540.06
2022-09-06T20:46:53.256Z,101538.28
2022-09-06T20:49:25.392Z,101537.38
2022-09-06T20:51:57.400Z,101527.72
2022-09-06T20:54:29.685Z,101529.56
2022-09-06T20:57:01.695Z,101522.53
2022-09-06T20:59:33.945Z,101513.88
2022-09-06T21:02:06.462Z,101514.88
2022-09-06T21:04:38.473Z,101514.88
2022-09-06T21:07:10.432Z,101509.75
2022-09-06T21:09:42.564Z,101504.59
2022-09-06T21:12:14.533Z,101501.09
2022-09-06T21:14:46.489Z,101499.41
2022-09-06T21:17:18.481Z,101504.84
2022-09-06T21:19:50.483Z,101500.41
2022-09-06T21:22:22.445Z,101492.53
2022-09-06T21:24:54.401Z,101494.38
2022-09-06T21:27:26.352Z,101490.94
2022-09-06T21:29:58.376Z,101494.41
2022-09-06T21:32:30.336Z,101483.91
2022-09-06T21:35:02.343Z,101492.00
2022-09-06T21:37:34.384Z,101487.53
2022-09-06T21:40:07.275Z,101494.59
2022-09-06T21:42:39.317Z,101486.75
2022-09-06T21:45:11.568Z,101486.84
2022-09-06T21:47:43.641Z,101497.59
2022-09-06T21:50:15.753Z,101500.28
2022-09-06T21:52:47.730Z,101497.66
2022-09-06T21:55:19.794Z,101495.03
2022-09-06T21:57:51.757Z,101503.03
2022-09-06T22:00:23.773Z,101496.94
2022-09-06T22:02:55.745Z,101497.91
2022-09-06T22:05:27.822Z,101504.06
2022-09-06T22:07:59.967Z,101501.44
2022-09-06T22:10:32.283Z,101490.78
2022-09-06T22:13:04.515Z,101483.84
2022-09-06T22:15:40.062Z,101483.03
2022-09-06T22:18:12.693Z,101473.41
2022-09-06T22:20:44.652Z,101481.34
2022-09-06T22:23:16.615Z,101487.53
2022-09-06T22:25:48.620Z,101492.00
2022-09-06T22:28:21.372Z,101492.00
2022-09-06T22:30:53.699Z,101485.91
2022-09-06T22:33:26.292Z,101485.13
2022-09-06T22:36:00.382Z,101482.50
2022-09-06T22:38:33.333Z,101478.13
2022-09-06T22:41:05.673Z,101485.28
2022-09-06T22:43:37.743Z,101471.22
2022-09-06T22:46:11.279Z,101480.06
2022-09-06T22:48:43.336Z,101469.59
2022-09-06T22:51:15.514Z,101472.28
2022-09-06T22:53:47.552Z,101465.25
2022-09-06T22:56:19.915Z,101454.66
2022-09-06T22:58:51.940Z,101452.09
2022-09-06T23:01:24.070Z,101443.28
2022-09-06T23:03:56.080Z,101447.72
2022-09-06T23:06:28.274Z,101448.63
2022-09-06T23:09:00.412Z,101452.25
2022-09-06T23:11:33.075Z,101455.00
2022-09-06T23:14:05.266Z,101448.97
2022-09-06T23:16:39.771Z,101449.09
2022-09-06T23:23:12.739Z,101437.63
2022-09-06T23:25:44.685Z,101435.06
2022-09-06T23:32:26.112Z,101426.25
2022-09-06T23:34:58.071Z,101427.22
2022-09-06T23:37:30.204Z,101419.28
2022-09-06T23:40:05.823Z,101418.28
2022-09-06T23:42:40.840Z,101410.34
2022-09-06T23:45:13.114Z,101420.06
2022-09-06T23:47:45.061Z,101413.91
2022-09-06T23:50:17.117Z,101415.63
2022-09-06T23:52:49.073Z,101409.47
2022-09-06T23:55:21.088Z,101407.75
2022-09-06T23:57:53.070Z,101407.72
